Time;durP1;ratioP1;P1;durP2;ratioP2;P2;SDS_P1;SDS_P2;PMS_P1;PMS_P2;Temp;Humidity;BMP_temperature;BMP_pressure;BME280_temperature;BME280_humidity;BME280_pressure;Samples;Min_cycle;Max_cycle;Signal;HPM_P1;HPM_P2
2022/12/01 00:02:12;;;;;;;16.20;8.80;;;8.70;99.90;;;;;;5059374;28;20696;-72
2022/12/01 00:04:38;;;;;;;13.13;8.57;;;8.70;99.90;;;;;;5056941;28;20664;-72
2022/12/01 00:07:04;;;;;;;17.87;10.67;;;8.70;99.90;;;;;;5057722;28;20644;-72
2022/12/01 00:12:13;;;;;;;15.07;9.57;;;8.70;99.90;;;;;;5054277;28;20191;-72
2022/12/01 00:14:39;;;;;;;12.80;8.57;;;8.70;99.90;;;;;;5056232;28;20986;-72
2022/12/01 00:17:04;;;;;;;17.73;9.83;;;8.70;99.90;;;;;;5056680;28;20183;-73
2022/12/01 00:19:30;;;;;;;15.27;10.10;;;8.70;99.90;;;;;;5057183;28;20215;-70
2022/12/01 00:21:56;;;;;;;16.97;9.17;;;8.70;99.90;;;;;;5059334;28;20186;-72
2022/12/01 00:24:22;;;;;;;19.20;11.67;;;8.60;99.90;;;;;;5060947;28;20194;-72
2022/12/01 00:26:48;;;;;;;15.90;9.83;;;8.70;99.90;;;;;;5060665;28;20232;-72
2022/12/01 00:29:14;;;;;;;17.73;10.70;;;8.60;99.90;;;;;;5058197;28;20872;-72
2022/12/01 00:31:40;;;;;;;18.03;10.90;;;8.60;99.90;;;;;;5054370;28;20523;-72
2022/12/01 00:34:06;;;;;;;17.50;10.70;;;8.60;99.90;;;;;;5057799;28;20287;-72
2022/12/01 00:36:32;;;;;;;16.60;10.23;;;8.60;99.90;;;;;;5055562;28;20211;-73
2022/12/01 00:38:57;;;;;;;15.43;10.60;;;8.60;99.90;;;;;;5059889;28;20479;-73
2022/12/01 00:41:24;;;;;;;14.47;9.70;;;8.60;99.90;;;;;;5056221;28;20216;-73
2022/12/01 00:43:50;;;;;;;16.83;10.73;;;8.70;99.90;;;;;;5054223;28;20176;-72
2022/12/01 00:46:16;;;;;;;14.87;9.13;;;8.70;99.90;;;;;;5055750;28;20469;-73
2022/12/01 00:48:41;;;;;;;16.50;9.50;;;8.70;99.90;;;;;;5057975;28;20441;-72
2022/12/01 00:51:07;;;;;;;17.20;10.30;;;8.60;99.90;;;;;;5061367;28;20786;-72
2022/12/01 00:53:33;;;;;;;16.07;9.50;;;8.60;99.90;;;;;;5055012;28;20687;-73
2022/12/01 00:55:59;;;;;;;16.40;10.47;;;8.60;99.90;;;;;;5057111;28;20203;-73
2022/12/01 00:58:24;;;;;;;15.53;9.87;;;8.60;99.90;;;;;;5057183;28;20202;-72
2022/12/01 01:01:01;;;;;;;17.20;10.80;;;8.60;99.90;;;;;;5058666;28;21044;-72
2022/12/01 01:03:27;;;;;;;19.07;12.47;;;8.60;99.90;;;;;;5058524;28;20433;-72
2022/12/01 01:05:53;;;;;;;16.80;11.03;;;8.60;99.90;;;;;;5060322;28;20453;-72
2022/12/01 01:08:19;;;;;;;17.93;12.07;;;8.60;99.90;;;;;;5060123;28;20424;-72
2022/12/01 01:10:46;;;;;;;20.10;12.53;;;8.60;99.90;;;;;;5053610;28;20433;-73
2022/12/01 01:13:13;;;;;;;22.13;11.90;;;8.50;99.90;;;;;;5057649;28;20647;-73
2022/12/01 01:15:39;;;;;;;19.47;11.80;;;8.50;99.90;;;;;;5053863;28;20518;-73
2022/12/01 01:18:05;;;;;;;17.17;11.43;;;8.60;99.90;;;;;;5055845;28;20479;-72
2022/12/01 01:20:32;;;;;;;19.93;12.60;;;8.50;99.90;;;;;;5056291;28;20446;-73
2022/12/01 01:22:57;;;;;;;17.77;12.03;;;8.60;99.90;;;;;;5056146;28;20437;-72
2022/12/01 01:25:23;;;;;;;19.97;11.53;;;8.50;99.90;;;;;;5054478;28;20466;-71
2022/12/01 01:27:49;;;;;;;21.10;13.83;;;8.50;99.90;;;;;;5055319;28;20187;-71
2022/12/01 01:30:16;;;;;;;20.57;13.40;;;8.50;99.90;;;;;;5059028;28;20187;-72
2022/12/01 01:32:41;;;;;;;21.83;13.63;;;8.40;99.90;;;;;;5059413;28;20487;-72
2022/12/01 01:35:07;;;;;;;21.57;13.80;;;8.40;99.90;;;;;;5055421;28;20492;-71
2022/12/01 01:37:33;;;;;;;24.73;14.20;;;8.40;99.90;;;;;;5058532;28;20195;-71
2022/12/01 01:39:58;;;;;;;27.53;14.23;;;8.40;99.90;;;;;;5056838;28;20195;-71
2022/12/01 01:42:24;;;;;;;25.97;15.53;;;8.30;99.90;;;;;;5060409;28;20195;-70
2022/12/01 01:44:57;;;;;;;28.70;14.60;;;8.40;99.90;;;;;;5052969;28;20227;-71
2022/12/01 01:47:31;;;;;;;23.60;14.27;;;8.40;99.90;;;;;;5056433;28;20260;-72
2022/12/01 01:50:05;;;;;;;20.50;12.93;;;8.40;99.90;;;;;;5036285;28;20566;-71
2022/12/01 01:52:32;;;;;;;24.93;14.90;;;8.30;99.90;;;;;;5056645;28;20473;-71
2022/12/01 01:54:58;;;;;;;24.73;15.60;;;8.30;99.90;;;;;;5043882;28;21277;-72
2022/12/01 01:57:30;;;;;;;26.97;14.50;;;8.30;99.90;;;;;;5053827;28;20456;-72
2022/12/01 02:00:02;;;;;;;22.87;14.10;;;8.20;99.90;;;;;;5060006;28;20467;-72
2022/12/01 02:02:28;;;;;;;25.10;15.30;;;8.20;99.90;;;;;;5061500;28;20436;-72
2022/12/01 02:05:00;;;;;;;24.87;15.90;;;8.20;99.90;;;;;;5063889;28;20500;-71
2022/12/01 02:07:26;;;;;;;22.07;14.63;;;8.20;99.90;;;;;;5062032;28;20247;-72
2022/12/01 02:09:53;;;;;;;24.43;16.67;;;8.20;99.90;;;;;;5059795;28;21033;-71
2022/12/01 02:12:52;;;;;;;26.10;15.40;;;8.10;99.90;;;;;;5063633;28;21115;-71
2022/12/01 02:15:31;;;;;;;25.53;14.57;;;8.10;99.90;;;;;;5060362;28;20487;-72
2022/12/01 02:18:29;;;;;;;26.37;15.83;;;8.10;99.90;;;;;;5058952;28;20496;-71
2022/12/01 02:21:16;;;;;;;26.23;15.43;;;8.10;99.90;;;;;;5062784;28;21115;-71
2022/12/01 02:23:54;;;;;;;24.80;14.80;;;8.00;99.90;;;;;;5059134;28;20440;-71
2022/12/01 02:26:43;;;;;;;27.80;16.30;;;8.00;99.90;;;;;;5061750;28;20465;-71
2022/12/01 02:29:42;;;;;;;24.93;14.10;;;8.00;99.90;;;;;;5060347;28;20851;-71
2022/12/01 02:32:14;;;;;;;22.73;14.20;;;8.10;99.90;;;;;;5063528;28;20451;-71
2022/12/01 02:34:47;;;;;;;22.73;14.10;;;8.00;99.90;;;;;;5064274;28;20802;-71
2022/12/01 02:37:44;;;;;;;27.07;15.03;;;7.90;99.90;;;;;;5060029;28;20853;-71
2022/12/01 02:40:38;;;;;;;25.30;14.23;;;7.90;99.90;;;;;;5062303;28;20510;-72
2022/12/01 02:43:13;;;;;;;29.70;15.80;;;7.90;99.90;;;;;;5055265;28;20463;-73
2022/12/01 02:46:19;;;;;;;20.60;12.47;;;7.90;99.90;;;;;;5060004;28;20672;-73
2022/12/01 02:48:50;;;;;;;20.57;13.20;;;8.00;99.90;;;;;;5002136;28;20512;-73
2022/12/01 02:51:21;;;;;;;20.40;13.07;;;8.00;99.90;;;;;;4985550;28;20877;-73
2022/12/01 02:53:47;;;;;;;20.83;11.90;;;7.90;99.90;;;;;;5033335;28;20447;-73
2022/12/01 02:56:16;;;;;;;18.93;12.73;;;7.90;99.90;;;;;;5062878;28;20523;-73
2022/12/01 02:58:42;;;;;;;16.60;11.67;;;7.90;99.90;;;;;;5040317;28;21143;-73
2022/12/01 03:01:18;;;;;;;18.20;13.17;;;7.90;99.90;;;;;;5057850;28;20459;-74
2022/12/01 03:03:59;;;;;;;17.63;11.87;;;7.90;99.90;;;;;;5064931;28;20440;-73
2022/12/01 03:06:43;;;;;;;19.97;12.57;;;7.90;99.90;;;;;;5062426;28;20457;-74
2022/12/01 03:09:28;;;;;;;20.83;13.70;;;7.90;99.90;;;;;;5060845;28;20519;-73
2022/12/01 03:12:31;;;;;;;19.20;12.50;;;7.80;99.90;;;;;;5058217;28;20441;-72
2022/12/01 03:15:18;;;;;;;21.60;13.57;;;7.80;99.90;;;;;;5053492;28;20485;-72
2022/12/01 03:18:04;;;;;;;18.73;11.77;;;7.80;99.90;;;;;;5060689;28;20465;-72
2022/12/01 03:20:47;;;;;;;24.97;12.57;;;7.80;99.90;;;;;;5059459;28;20969;-72
2022/12/01 03:23:20;;;;;;;19.30;12.90;;;7.80;99.90;;;;;;5058291;28;20437;-72
2022/12/01 03:25:50;;;;;;;20.20;13.70;;;7.70;99.90;;;;;;5059046;28;21457;-72
2022/12/01 03:28:20;;;;;;;23.47;13.33;;;7.70;99.90;;;;;;5057107;28;20469;-72
2022/12/01 03:30:49;;;;;;;20.83;13.17;;;7.70;99.90;;;;;;5055818;28;20433;-73
2022/12/01 03:33:29;;;;;;;21.27;13.43;;;7.70;99.90;;;;;;5056910;28;20508;-72
2022/12/01 03:36:08;;;;;;;18.07;12.77;;;7.70;99.90;;;;;;5059292;28;20453;-71
2022/12/01 03:38:36;;;;;;;20.90;13.57;;;7.70;99.90;;;;;;5057918;28;20834;-71
2022/12/01 03:41:11;;;;;;;18.33;12.20;;;7.60;99.90;;;;;;5058057;28;20429;-72
2022/12/01 03:43:43;;;;;;;19.77;12.50;;;7.60;99.90;;;;;;5061337;28;20507;-72
2022/12/01 03:46:16;;;;;;;22.57;13.20;;;7.60;99.90;;;;;;5063304;28;20456;-72
2022/12/01 03:48:42;;;;;;;20.40;13.67;;;7.60;99.90;;;;;;5060534;28;20445;-72
2022/12/01 03:51:16;;;;;;;19.23;12.80;;;7.60;99.90;;;;;;5047810;28;20463;-72
2022/12/01 03:53:57;;;;;;;19.10;12.37;;;7.60;99.90;;;;;;5059940;28;20437;-71
2022/12/01 03:56:26;;;;;;;14.70;11.43;;;7.70;99.90;;;;;;5056148;28;20461;-71
2022/12/01 03:58:55;;;;;;;18.87;11.83;;;7.60;99.90;;;;;;5058425;28;20461;-72
2022/12/01 04:01:21;;;;;;;21.60;12.73;;;7.60;99.90;;;;;;5055370;28;20437;-72
2022/12/01 04:03:47;;;;;;;16.73;12.80;;;7.70;99.90;;;;;;5059526;28;20448;-73
2022/12/01 04:06:13;;;;;;;19.27;12.67;;;7.70;99.90;;;;;;5057870;28;20216;-72
2022/12/01 04:08:39;;;;;;;19.13;12.37;;;7.60;99.90;;;;;;5040256;28;20535;-72
2022/12/01 04:12:28;;;;;;;20.20;12.83;;;7.60;99.90;;;;;;5058937;28;20645;-71
2022/12/01 04:13:51;;;;;;;17.90;12.50;;;7.60;99.90;;;;;;5054020;28;20206;-72
2022/12/01 04:16:17;;;;;;;18.90;12.17;;;7.60;99.90;;;;;;5053914;28;20466;-72
2022/12/01 04:18:42;;;;;;;16.80;11.90;;;7.60;99.90;;;;;;5057409;28;20214;-71
2022/12/01 04:21:08;;;;;;;22.27;12.93;;;7.50;99.90;;;;;;5055870;28;20667;-72
2022/12/01 04:26:17;;;;;;;18.90;12.30;;;7.60;99.90;;;;;;5057865;28;20206;-72
2022/12/01 04:28:43;;;;;;;19.23;12.67;;;7.50;99.90;;;;;;5057846;28;20433;-72
2022/12/01 04:31:08;;;;;;;21.73;12.47;;;7.50;99.90;;;;;;5055304;28;20579;-73
2022/12/01 04:33:34;;;;;;;21.80;13.77;;;7.50;99.90;;;;;;5057670;28;20187;-73
2022/12/01 04:36:00;;;;;;;20.07;12.20;;;7.50;99.90;;;;;;5060371;28;20195;-73
2022/12/01 04:38:26;;;;;;;23.10;12.73;;;7.40;99.90;;;;;;5059317;28;20290;-71
2022/12/01 04:40:52;;;;;;;21.97;13.60;;;7.40;99.90;;;;;;5057111;28;20179;-72
2022/12/01 04:43:18;;;;;;;21.77;13.70;;;7.40;99.90;;;;;;5058019;28;20450;-72
2022/12/01 04:45:43;;;;;;;20.53;14.53;;;7.40;99.90;;;;;;5056588;28;20206;-72
2022/12/01 04:48:09;;;;;;;22.50;13.30;;;7.40;99.90;;;;;;5055236;28;20282;-73
2022/12/01 04:50:34;;;;;;;23.50;14.50;;;7.40;99.90;;;;;;5054795;28;20188;-71
2022/12/01 04:53:00;;;;;;;21.83;13.73;;;7.40;99.90;;;;;;5057219;28;20198;-72
2022/12/01 04:55:25;;;;;;;21.20;13.73;;;7.40;99.90;;;;;;5060878;28;20222;-72
2022/12/01 04:57:51;;;;;;;20.90;13.67;;;7.40;99.90;;;;;;5059090;28;20210;-72
2022/12/01 05:00:17;;;;;;;22.97;13.10;;;7.40;99.90;;;;;;5056838;28;20210;-72
2022/12/01 05:02:43;;;;;;;25.53;16.03;;;7.40;99.90;;;;;;5054466;28;20187;-71
2022/12/01 05:05:12;;;;;;;23.60;14.80;;;7.40;99.90;;;;;;5055613;28;20595;-72
2022/12/01 05:07:39;;;;;;;22.77;14.20;;;7.40;99.90;;;;;;5053435;28;20496;-72
2022/12/01 05:10:05;;;;;;;19.47;12.60;;;7.50;99.90;;;;;;5058202;28;21022;-71
2022/12/01 05:12:31;;;;;;;23.77;13.57;;;7.40;99.90;;;;;;5052096;28;20506;-72
2022/12/01 05:14:56;;;;;;;24.30;14.07;;;7.40;99.90;;;;;;5057577;28;20465;-72
2022/12/01 05:17:22;;;;;;;26.00;16.10;;;7.50;99.90;;;;;;5054397;28;20801;-72
2022/12/01 05:22:31;;;;;;;20.40;13.13;;;7.50;99.90;;;;;;5055504;28;20186;-72
2022/12/01 05:24:57;;;;;;;22.83;14.67;;;7.50;99.90;;;;;;5059721;28;20449;-70
2022/12/01 05:27:22;;;;;;;19.97;13.53;;;7.50;99.90;;;;;;5057335;28;20191;-70
2022/12/01 05:29:48;;;;;;;22.17;13.93;;;7.50;99.90;;;;;;5055478;28;20320;-70
2022/12/01 05:32:14;;;;;;;23.10;13.17;;;7.50;99.90;;;;;;5053143;28;20189;-72
2022/12/01 05:34:39;;;;;;;20.53;13.77;;;7.50;99.90;;;;;;5057587;28;20207;-72
2022/12/01 05:37:05;;;;;;;18.90;12.27;;;7.50;99.90;;;;;;5056607;28;20495;-70
2022/12/01 05:39:30;;;;;;;20.53;12.73;;;7.50;99.90;;;;;;5058306;28;20590;-73
2022/12/01 05:41:56;;;;;;;21.60;12.83;;;7.50;99.90;;;;;;5057145;28;20249;-71
2022/12/01 05:44:21;;;;;;;21.53;12.83;;;7.50;99.90;;;;;;5058033;28;20178;-70
2022/12/01 05:46:47;;;;;;;17.40;11.43;;;7.50;99.90;;;;;;5059341;28;20816;-71
2022/12/01 05:49:13;;;;;;;24.77;14.43;;;7.50;99.90;;;;;;5058960;28;20195;-71
2022/12/01 05:51:38;;;;;;;21.00;13.07;;;7.50;99.90;;;;;;5057308;28;20196;-71
2022/12/01 05:54:04;;;;;;;21.83;13.70;;;7.50;99.90;;;;;;5043505;28;20195;-72
2022/12/01 05:56:29;;;;;;;19.00;12.30;;;7.50;99.90;;;;;;5057877;28;20213;-71
2022/12/01 05:58:55;;;;;;;18.80;13.10;;;7.50;99.90;;;;;;5058444;28;20245;-72
2022/12/01 06:01:21;;;;;;;20.20;13.40;;;7.40;99.90;;;;;;5054734;28;20248;-72
2022/12/01 06:03:46;;;;;;;21.40;12.33;;;7.40;99.90;;;;;;5053205;28;20215;-73
2022/12/01 06:06:12;;;;;;;21.57;12.83;;;7.40;99.90;;;;;;5051578;28;20289;-72
2022/12/01 06:08:38;;;;;;;20.90;12.50;;;7.40;99.90;;;;;;5057870;28;20187;-72
2022/12/01 06:11:03;;;;;;;21.83;13.43;;;7.50;99.90;;;;;;5054946;28;20273;-72
2022/12/01 06:13:29;;;;;;;19.93;12.80;;;7.50;99.90;;;;;;5051057;28;20219;-73
2022/12/01 06:15:59;;;;;;;21.47;12.47;;;7.50;99.90;;;;;;5053465;28;20295;-73
2022/12/01 06:18:26;;;;;;;20.30;12.30;;;7.50;99.90;;;;;;5057543;28;20218;-73
2022/12/01 06:20:52;;;;;;;21.67;13.00;;;7.50;99.90;;;;;;5057663;28;20540;-72
2022/12/01 06:23:17;;;;;;;20.23;13.30;;;7.50;99.90;;;;;;5053250;28;20958;-73
2022/12/01 06:25:43;;;;;;;20.33;12.53;;;7.50;99.90;;;;;;5056536;28;20211;-73
2022/12/01 06:28:09;;;;;;;20.20;12.10;;;7.50;99.90;;;;;;5051687;28;20257;-73
2022/12/01 06:30:34;;;;;;;19.87;11.67;;;7.50;99.90;;;;;;5057954;28;20574;-73
2022/12/01 06:33:00;;;;;;;16.77;12.07;;;7.50;99.90;;;;;;5055518;28;20278;-73
2022/12/01 06:35:25;;;;;;;18.63;12.23;;;7.50;99.90;;;;;;5054372;28;20215;-73
2022/12/01 06:37:53;;;;;;;21.50;13.10;;;7.50;99.90;;;;;;5056278;28;20703;-74
2022/12/01 06:40:19;;;;;;;22.00;13.00;;;7.50;99.90;;;;;;5055849;28;20189;-74
2022/12/01 06:42:44;;;;;;;20.27;13.40;;;7.50;99.90;;;;;;5054550;28;20544;-73
2022/12/01 06:45:10;;;;;;;19.50;12.17;;;7.50;99.90;;;;;;5056298;28;20548;-73
2022/12/01 06:47:36;;;;;;;23.13;13.63;;;7.50;99.90;;;;;;5056593;28;20333;-73
2022/12/01 06:50:04;;;;;;;18.37;12.37;;;7.50;99.90;;;;;;5057108;28;20445;-73
2022/12/01 06:52:30;;;;;;;22.73;14.00;;;7.50;99.90;;;;;;5061131;28;20441;-73
2022/12/01 06:54:55;;;;;;;22.67;11.50;;;7.50;99.90;;;;;;5059744;28;20450;-73
2022/12/01 06:57:21;;;;;;;23.30;14.47;;;7.50;99.90;;;;;;5060478;28;20204;-73
2022/12/01 06:59:46;;;;;;;21.20;13.37;;;7.50;99.90;;;;;;5060663;28;20184;-73
2022/12/01 07:02:12;;;;;;;18.17;11.57;;;7.50;99.90;;;;;;5056875;28;20184;-70
2022/12/01 07:04:38;;;;;;;20.90;13.30;;;7.50;99.90;;;;;;5054774;28;20201;-71
2022/12/01 07:07:07;;;;;;;21.43;13.33;;;7.50;99.90;;;;;;5058394;28;21047;-72
2022/12/01 07:09:33;;;;;;;21.33;12.10;;;7.50;99.90;;;;;;5057917;28;20179;-71
2022/12/01 07:11:58;;;;;;;21.30;13.50;;;7.50;99.90;;;;;;5056650;28;20468;-72
2022/12/01 07:14:25;;;;;;;21.43;12.53;;;7.50;99.90;;;;;;5057384;28;20194;-71
2022/12/01 07:16:51;;;;;;;22.43;13.70;;;7.50;99.90;;;;;;5053665;28;20232;-73
2022/12/01 07:19:17;;;;;;;20.77;13.03;;;7.50;99.90;;;;;;5057756;28;20492;-72
2022/12/01 07:21:42;;;;;;;21.47;12.63;;;7.50;99.90;;;;;;5055064;28;20529;-71
2022/12/01 07:24:08;;;;;;;17.90;11.83;;;7.60;99.90;;;;;;5047230;28;20175;-71
2022/12/01 07:26:34;;;;;;;15.73;10.73;;;7.60;99.90;;;;;;5057397;28;20199;-72
2022/12/01 07:29:00;;;;;;;17.83;11.50;;;7.50;99.90;;;;;;5052349;28;20815;-72
2022/12/01 07:31:25;;;;;;;19.03;11.73;;;7.50;99.90;;;;;;5051645;28;20214;-73
2022/12/01 07:33:51;;;;;;;17.57;12.20;;;7.60;99.90;;;;;;5055958;28;20195;-73
2022/12/01 07:36:16;;;;;;;19.90;11.60;;;7.60;99.90;;;;;;5057182;28;20557;-72
2022/12/01 07:38:42;;;;;;;18.70;12.30;;;7.60;99.90;;;;;;5057545;28;20210;-73
2022/12/01 07:41:13;;;;;;;21.30;11.23;;;7.60;99.90;;;;;;5047189;28;20179;-73
2022/12/01 07:43:39;;;;;;;18.73;12.17;;;7.60;99.90;;;;;;5052745;28;20282;-73
2022/12/01 07:46:16;;;;;;;18.40;12.13;;;7.60;99.90;;;;;;5053562;28;20540;-73
2022/12/01 07:48:42;;;;;;;20.73;12.83;;;7.60;99.90;;;;;;5053727;28;20424;-73
2022/12/01 07:51:10;;;;;;;18.10;11.00;;;7.60;99.90;;;;;;5054998;28;20445;-72
2022/12/01 07:53:36;;;;;;;14.90;11.20;;;7.60;99.90;;;;;;5056781;28;20454;-72
2022/12/01 07:56:04;;;;;;;16.13;11.50;;;7.60;99.90;;;;;;5055900;28;20453;-72
2022/12/01 07:58:29;;;;;;;15.80;10.60;;;7.70;99.90;;;;;;5051534;28;20507;-74
2022/12/01 08:00:55;;;;;;;17.43;11.10;;;7.70;99.90;;;;;;5057649;28;20849;-72
2022/12/01 08:03:21;;;;;;;18.20;11.90;;;7.70;99.90;;;;;;5056903;28;20442;-72
2022/12/01 08:05:57;;;;;;;16.00;10.27;;;7.70;99.90;;;;;;5054017;28;20191;-73
2022/12/01 08:08:22;;;;;;;17.87;11.70;;;7.60;99.90;;;;;;5056526;28;20325;-72
2022/12/01 08:10:48;;;;;;;17.70;11.23;;;7.70;99.90;;;;;;5053466;28;20595;-72
2022/12/01 08:13:13;;;;;;;20.00;11.30;;;7.70;99.90;;;;;;5057811;28;20859;-73
2022/12/01 08:15:39;;;;;;;21.27;13.20;;;7.70;99.90;;;;;;5058049;28;20252;-70
2022/12/01 08:18:05;;;;;;;23.63;12.60;;;7.60;99.90;;;;;;5056554;28;20256;-69
2022/12/01 08:20:30;;;;;;;20.07;12.13;;;7.70;99.90;;;;;;5057912;28;20175;-70
2022/12/01 08:22:59;;;;;;;19.90;11.80;;;7.70;99.90;;;;;;5057357;28;20218;-70
2022/12/01 08:25:25;;;;;;;16.60;11.73;;;7.70;99.90;;;;;;5057343;28;20209;-71
2022/12/01 08:27:51;;;;;;;18.90;10.83;;;7.70;99.90;;;;;;5052611;28;20426;-72
2022/12/01 08:30:16;;;;;;;17.43;10.40;;;7.70;99.90;;;;;;5055946;28;20305;-73
2022/12/01 08:32:42;;;;;;;18.43;11.13;;;7.70;99.90;;;;;;5053109;28;20179;-73
2022/12/01 08:35:07;;;;;;;19.80;12.50;;;7.70;99.90;;;;;;5060544;28;20691;-72
2022/12/01 08:37:33;;;;;;;18.13;12.37;;;7.70;99.90;;;;;;5058825;28;20195;-72
2022/12/01 08:39:58;;;;;;;20.53;12.07;;;7.70;99.90;;;;;;5056302;28;20218;-72
2022/12/01 08:42:24;;;;;;;17.87;10.73;;;7.70;99.90;;;;;;5054434;28;20582;-73
2022/12/01 08:44:49;;;;;;;16.20;11.13;;;7.70;99.90;;;;;;5058120;28;20860;-77
2022/12/01 08:47:15;;;;;;;15.53;10.47;;;7.70;99.90;;;;;;5052369;28;20171;-76
2022/12/01 08:49:40;;;;;;;17.90;12.10;;;7.70;99.90;;;;;;5055066;28;20706;-74
2022/12/01 08:52:06;;;;;;;18.43;11.93;;;7.70;99.90;;;;;;5052842;28;20535;-71
2022/12/01 08:54:32;;;;;;;25.37;14.90;;;7.70;99.90;;;;;;5059045;28;20739;-76
2022/12/01 08:56:57;;;;;;;23.03;12.57;;;7.70;99.90;;;;;;5054535;28;20170;-78
2022/12/01 08:59:23;;;;;;;23.80;12.43;;;7.70;99.90;;;;;;5054450;28;20250;-73
2022/12/01 09:01:51;;;;;;;23.80;14.10;;;7.70;99.90;;;;;;5053444;28;20253;-74
2022/12/01 09:04:22;;;;;;;21.40;13.70;;;7.70;99.90;;;;;;5057844;28;20296;-77
2022/12/01 09:06:49;;;;;;;19.83;12.40;;;7.80;99.90;;;;;;5040165;28;20951;-76
2022/12/01 09:09:22;;;;;;;23.13;13.00;;;7.80;99.90;;;;;;5059506;28;20457;-77
2022/12/01 09:11:48;;;;;;;24.83;12.90;;;7.90;99.90;;;;;;5057786;28;20444;-75
2022/12/01 09:14:15;;;;;;;19.47;12.60;;;7.90;99.90;;;;;;5057293;28;20444;-76
2022/12/01 09:16:42;;;;;;;21.87;12.90;;;7.90;99.90;;;;;;5053937;28;21372;-74
2022/12/01 09:19:08;;;;;;;22.17;13.13;;;7.90;99.90;;;;;;5036390;28;21259;-73
2022/12/01 09:21:38;;;;;;;27.00;14.47;;;7.90;99.90;;;;;;5055465;28;21758;-73
2022/12/01 09:24:05;;;;;;;25.30;14.00;;;7.90;99.90;;;;;;5057259;28;20429;-73
2022/12/01 09:26:32;;;;;;;22.27;14.40;;;7.90;99.90;;;;;;5055704;28;20449;-73
2022/12/01 09:29:00;;;;;;;20.03;12.13;;;7.90;99.90;;;;;;5055075;28;20484;-73
2022/12/01 09:31:26;;;;;;;20.93;12.30;;;8.00;99.90;;;;;;5051854;28;20437;-73
2022/12/01 09:33:58;;;;;;;19.67;12.27;;;8.00;99.90;;;;;;5054724;28;20446;-73
2022/12/01 09:36:25;;;;;;;24.80;15.17;;;7.90;99.90;;;;;;5055771;28;20632;-72
2022/12/01 09:38:50;;;;;;;22.40;12.60;;;7.90;99.90;;;;;;5058252;28;20468;-71
2022/12/01 09:41:29;;;;;;;21.97;11.97;;;7.90;99.90;;;;;;5053060;28;20665;-74
2022/12/01 09:44:04;;;;;;;21.80;13.00;;;7.90;99.90;;;;;;5052291;28;20179;-71
2022/12/01 09:46:40;;;;;;;24.83;13.70;;;7.90;99.90;;;;;;5053059;28;20567;-73
2022/12/01 09:49:14;;;;;;;17.73;12.03;;;7.90;99.90;;;;;;5054813;28;20432;-71
2022/12/01 09:51:39;;;;;;;19.10;12.20;;;7.90;99.90;;;;;;5054089;28;20467;-71
2022/12/01 09:54:09;;;;;;;17.80;11.77;;;7.90;99.90;;;;;;5057654;28;21205;-75
2022/12/01 09:56:43;;;;;;;21.27;12.67;;;7.90;99.90;;;;;;5056358;28;20264;-73
2022/12/01 09:59:17;;;;;;;19.80;13.10;;;7.90;99.90;;;;;;5052617;28;20489;-73
2022/12/01 10:01:45;;;;;;;19.23;11.60;;;7.90;99.90;;;;;;5052467;28;20489;-72
2022/12/01 10:04:23;;;;;;;20.00;11.40;;;7.90;99.90;;;;;;5050663;28;20449;-74
2022/12/01 10:07:03;;;;;;;18.00;13.13;;;7.90;99.90;;;;;;5037984;28;20504;-75
2022/12/01 10:09:35;;;;;;;19.83;12.20;;;8.00;99.90;;;;;;5055088;28;20821;-74
2022/12/01 10:12:13;;;;;;;19.83;11.43;;;7.90;99.90;;;;;;5052769;28;21105;-75
2022/12/01 10:14:39;;;;;;;15.77;9.70;;;8.00;99.90;;;;;;5052269;28;20449;-76
2022/12/01 10:17:19;;;;;;;18.57;10.77;;;8.00;99.90;;;;;;5033073;28;20445;-76
2022/12/01 10:19:57;;;;;;;19.40;12.87;;;8.00;99.90;;;;;;5057425;28;20475;-74
2022/12/01 10:22:53;;;;;;;19.37;11.50;;;8.00;99.90;;;;;;5056126;28;20568;-74
2022/12/01 10:25:27;;;;;;;18.33;10.83;;;8.00;99.90;;;;;;5061349;28;20452;-74
2022/12/01 10:28:19;;;;;;;20.90;12.47;;;8.00;99.90;;;;;;5059580;28;20897;-75
2022/12/01 10:30:52;;;;;;;21.70;12.00;;;8.00;99.90;;;;;;5056889;28;20865;-74
2022/12/01 10:33:20;;;;;;;23.10;13.93;;;8.00;99.90;;;;;;5060940;28;20463;-75
2022/12/01 10:35:46;;;;;;;20.73;12.00;;;8.00;99.90;;;;;;5062795;28;20828;-75
2022/12/01 10:38:40;;;;;;;21.10;12.40;;;8.00;99.90;;;;;;5053833;28;20471;-74
2022/12/01 10:41:11;;;;;;;20.77;12.07;;;8.00;99.90;;;;;;5056007;28;20279;-74
2022/12/01 10:43:39;;;;;;;20.07;11.40;;;8.00;99.90;;;;;;5056602;28;20432;-76
2022/12/01 10:46:17;;;;;;;19.60;12.73;;;8.10;99.90;;;;;;5040047;28;21031;-74
2022/12/01 10:48:57;;;;;;;16.53;11.30;;;8.10;99.90;;;;;;5059260;28;20444;-74
2022/12/01 10:51:25;;;;;;;21.60;12.73;;;8.10;99.90;;;;;;5059851;28;20520;-71
2022/12/01 10:53:58;;;;;;;19.73;11.60;;;8.10;99.90;;;;;;5055766;28;20433;-75
2022/12/01 10:56:24;;;;;;;17.33;10.67;;;8.10;99.90;;;;;;5057911;28;20460;-77
2022/12/01 10:58:53;;;;;;;16.83;11.57;;;8.10;99.90;;;;;;5057790;28;20986;-75
2022/12/01 11:01:25;;;;;;;18.27;11.63;;;8.10;99.90;;;;;;5037911;28;20183;-75
2022/12/01 11:03:57;;;;;;;17.13;11.30;;;8.10;99.90;;;;;;5060383;28;20446;-74
2022/12/01 11:06:26;;;;;;;16.30;11.23;;;8.10;99.90;;;;;;5057767;28;20456;-75
2022/12/01 11:08:58;;;;;;;20.87;13.30;;;8.20;99.90;;;;;;5058179;28;20464;-73
2022/12/01 11:11:31;;;;;;;23.43;13.30;;;8.20;99.90;;;;;;5058255;28;20970;-73
2022/12/01 11:14:00;;;;;;;17.47;12.27;;;8.10;99.90;;;;;;5060076;28;20440;-74
2022/12/01 11:16:35;;;;;;;20.40;12.30;;;8.20;99.90;;;;;;5061373;28;20449;-73
2022/12/01 11:19:29;;;;;;;19.80;11.70;;;8.20;99.90;;;;;;5060920;28;20555;-74
2022/12/01 11:21:57;;;;;;;16.87;11.47;;;8.20;99.90;;;;;;5058118;28;20433;-73
2022/12/01 11:24:31;;;;;;;48.57;28.00;;;8.20;99.90;;;;;;5059436;28;20409;-76
2022/12/01 11:26:58;;;;;;;26.80;16.80;;;8.20;99.90;;;;;;5057838;28;20614;-76
2022/12/01 11:29:45;;;;;;;21.43;15.07;;;8.30;99.90;;;;;;5058711;28;20418;-79
2022/12/01 11:32:33;;;;;;;18.60;11.50;;;8.30;99.90;;;;;;5063676;28;20957;-74
2022/12/01 11:35:15;;;;;;;19.50;12.23;;;8.30;99.90;;;;;;5062469;28;20909;-74
2022/12/01 11:37:48;;;;;;;19.87;11.70;;;8.30;99.90;;;;;;5058585;28;21825;-75
2022/12/01 11:40:22;;;;;;;15.10;10.90;;;8.30;99.90;;;;;;5059129;28;20459;-74
2022/12/01 11:43:28;;;;;;;21.40;12.40;;;8.30;99.90;;;;;;5057028;28;20977;-73
2022/12/01 11:45:56;;;;;;;17.80;11.43;;;8.20;99.90;;;;;;5060611;28;20461;-74
2022/12/01 11:48:30;;;;;;;20.13;11.60;;;8.30;99.90;;;;;;5058010;28;20795;-74
2022/12/01 11:50:59;;;;;;;16.60;11.70;;;8.30;99.90;;;;;;5054644;28;20437;-73
2022/12/01 11:53:29;;;;;;;17.50;13.23;;;8.30;99.90;;;;;;5057848;28;21348;-73
2022/12/01 11:56:19;;;;;;;18.50;11.80;;;8.30;99.90;;;;;;5057264;28;20464;-73
2022/12/01 11:58:47;;;;;;;19.43;13.17;;;8.30;99.90;;;;;;5059042;28;20993;-79
2022/12/01 12:01:36;;;;;;;19.27;12.03;;;8.30;99.90;;;;;;5058964;28;20443;-75
2022/12/01 12:04:26;;;;;;;18.47;11.90;;;8.30;99.90;;;;;;5053012;28;20488;-78
2022/12/01 12:07:00;;;;;;;19.63;12.10;;;8.30;99.90;;;;;;5055743;28;20456;-74
2022/12/01 12:09:44;;;;;;;22.27;11.90;;;8.30;99.90;;;;;;5057532;28;20989;-77
2022/12/01 12:12:19;;;;;;;22.70;13.30;;;8.30;99.90;;;;;;5058796;28;20495;-72
2022/12/01 12:14:59;;;;;;;18.70;12.30;;;8.30;99.90;;;;;;5056649;28;20535;-76
2022/12/01 12:17:43;;;;;;;20.40;12.30;;;8.30;99.90;;;;;;5058234;28;20448;-75
2022/12/01 12:20:22;;;;;;;19.97;12.37;;;8.40;99.90;;;;;;5060019;28;20441;-75
2022/12/01 12:23:02;;;;;;;21.63;13.63;;;8.40;99.90;;;;;;5057402;28;20433;-76
2022/12/01 12:26:05;;;;;;;21.60;12.87;;;8.40;99.90;;;;;;5057484;28;20905;-76
2022/12/01 12:28:49;;;;;;;20.60;13.10;;;8.40;99.90;;;;;;5057783;28;20438;-74
2022/12/01 12:31:26;;;;;;;21.70;13.80;;;8.40;99.90;;;;;;5057284;28;20864;-75
2022/12/01 12:34:18;;;;;;;22.83;13.27;;;8.30;99.90;;;;;;5059341;28;20452;-75
2022/12/01 12:37:18;;;;;;;19.20;12.30;;;8.30;99.90;;;;;;5057098;28;21090;-76
2022/12/01 12:40:02;;;;;;;16.40;10.13;;;8.30;99.90;;;;;;4976646;28;20523;-76
2022/12/01 12:42:57;;;;;;;17.83;11.73;;;8.30;99.90;;;;;;5027526;28;20766;-74
2022/12/01 12:45:34;;;;;;;20.00;12.03;;;8.30;99.90;;;;;;5012004;28;20496;-78
2022/12/01 12:48:07;;;;;;;13.67;10.23;;;8.30;99.90;;;;;;5055451;28;20439;-74
2022/12/01 12:50:51;;;;;;;20.10;11.30;;;8.30;99.90;;;;;;5054034;28;20973;-72
2022/12/01 12:53:24;;;;;;;17.50;11.20;;;8.30;99.90;;;;;;5054463;28;20461;-75
2022/12/01 12:55:55;;;;;;;19.10;11.33;;;8.30;99.90;;;;;;5055738;28;20557;-74
2022/12/01 12:58:37;;;;;;;22.00;12.10;;;8.30;99.90;;;;;;5056675;28;20560;-78
2022/12/01 13:01:11;;;;;;;19.93;12.00;;;8.30;99.90;;;;;;5056035;28;20443;-80
2022/12/01 13:03:55;;;;;;;19.73;11.97;;;8.30;99.90;;;;;;5058592;28;21928;-78
2022/12/01 13:06:39;;;;;;;15.97;10.50;;;8.30;99.90;;;;;;5060648;28;20457;-80